Pontiac, South Carolina
Current Conditions -  °F | °C
As of 8:15 PM on Monday 22 Dec 2014 (Local Time) from KCDN Reporting Station
Haze Haze  
Wind Chill: 34°   Ceiling: 300
Heat Index: 39°   Visibility: 1.5mi
Dew Point: 39°   Wind: 7mph
Humidity: 100%   Direction: 60°ENE
Pressure: 30.05"   Gusts: NA
Location:  34.1767°N, 80.8184°W
Report Text: KCDN 230115Z AUTO 06006KT 1 1/2SM BR OVC003 04/04 A3005 RMK AO2 TSNO
Loading
Personal Weather Stations






























Interactive Weather Map New forecast layout! Learn more

10-Day Weather Forecast

Advertisements
Track Severe Weather on mobile